sensor_id;sensor_type;location;lat;lon;timestamp;temperature;humidity
66343;DHT22;53144;51.524;5.080;2023-05-14T00:00:44;13.55;88.83
66343;DHT22;53144;51.524;5.080;2023-05-14T00:03:11;13.49;89.45
66343;DHT22;53144;51.524;5.080;2023-05-14T00:05:36;13.49;89.26
66343;DHT22;53144;51.524;5.080;2023-05-14T00:08:02;13.44;89.24
66343;DHT22;53144;51.524;5.080;2023-05-14T00:10:27;13.48;89.25
66343;DHT22;53144;51.524;5.080;2023-05-14T00:12:52;13.52;88.81
66343;DHT22;53144;51.524;5.080;2023-05-14T00:15:18;13.47;88.76
66343;DHT22;53144;51.524;5.080;2023-05-14T00:17:43;13.45;88.52
66343;DHT22;53144;51.524;5.080;2023-05-14T00:20:09;13.48;88.33
66343;DHT22;53144;51.524;5.080;2023-05-14T00:22:36;13.48;88.21
66343;DHT22;53144;51.524;5.080;2023-05-14T00:25:02;13.41;88.22
66343;DHT22;53144;51.524;5.080;2023-05-14T00:27:27;13.42;88.17
66343;DHT22;53144;51.524;5.080;2023-05-14T00:29:53;13.40;88.48
66343;DHT22;53144;51.524;5.080;2023-05-14T00:32:18;13.32;88.36
66343;DHT22;53144;51.524;5.080;2023-05-14T00:34:45;13.28;88.39
66343;DHT22;53144;51.524;5.080;2023-05-14T00:37:10;13.21;88.56
66343;DHT22;53144;51.524;5.080;2023-05-14T00:39:36;13.18;88.71
66343;DHT22;53144;51.524;5.080;2023-05-14T00:42:01;13.15;88.71
66343;DHT22;53144;51.524;5.080;2023-05-14T00:44:26;13.12;89.40
66343;DHT22;53144;51.524;5.080;2023-05-14T00:46:52;13.14;88.68
66343;DHT22;53144;51.524;5.080;2023-05-14T00:49:17;13.10;88.87
66343;DHT22;53144;51.524;5.080;2023-05-14T00:51:43;13.07;87.76
66343;DHT22;53144;51.524;5.080;2023-05-14T00:54:13;13.11;87.93
66343;DHT22;53144;51.524;5.080;2023-05-14T00:56:39;13.06;87.67
66343;DHT22;53144;51.524;5.080;2023-05-14T00:59:04;13.01;87.91
66343;DHT22;53144;51.524;5.080;2023-05-14T01:01:30;13.00;87.71
66343;DHT22;53144;51.524;5.080;2023-05-14T01:03:55;12.93;87.03
66343;DHT22;53144;51.524;5.080;2023-05-14T01:06:26;12.90;87.34
66343;DHT22;53144;51.524;5.080;2023-05-14T01:09:12;12.87;87.14
66343;DHT22;53144;51.524;5.080;2023-05-14T01:14:33;12.89;87.76
66343;DHT22;53144;51.524;5.080;2023-05-14T01:17:03;12.83;87.66
66343;DHT22;53144;51.524;5.080;2023-05-14T01:19:55;12.73;87.88
66343;DHT22;53144;51.524;5.080;2023-05-14T01:22:20;12.76;87.45
66343;DHT22;53144;51.524;5.080;2023-05-14T01:24:46;12.77;87.35
66343;DHT22;53144;51.524;5.080;2023-05-14T01:27:24;12.77;86.78
66343;DHT22;53144;51.524;5.080;2023-05-14T01:30:00;12.75;87.01
66343;DHT22;53144;51.524;5.080;2023-05-14T01:32:28;12.76;86.75
66343;DHT22;53144;51.524;5.080;2023-05-14T01:34:56;12.66;87.17
66343;DHT22;53144;51.524;5.080;2023-05-14T01:37:23;12.64;87.14
66343;DHT22;53144;51.524;5.080;2023-05-14T01:39:50;12.52;87.90
66343;DHT22;53144;51.524;5.080;2023-05-14T01:42:16;12.53;87.56
66343;DHT22;53144;51.524;5.080;2023-05-14T01:44:42;12.55;87.32
66343;DHT22;53144;51.524;5.080;2023-05-14T01:47:07;12.49;87.17
66343;DHT22;53144;51.524;5.080;2023-05-14T01:49:32;12.55;87.57
66343;DHT22;53144;51.524;5.080;2023-05-14T01:51:58;12.50;87.47
66343;DHT22;53144;51.524;5.080;2023-05-14T01:54:23;12.48;87.26
66343;DHT22;53144;51.524;5.080;2023-05-14T01:56:50;12.49;87.62
66343;DHT22;53144;51.524;5.080;2023-05-14T01:59:15;12.49;87.92
66343;DHT22;53144;51.524;5.080;2023-05-14T02:01:41;12.43;87.99
66343;DHT22;53144;51.524;5.080;2023-05-14T02:04:06;12.45;87.96
66343;DHT22;53144;51.524;5.080;2023-05-14T02:06:32;12.42;87.98
66343;DHT22;53144;51.524;5.080;2023-05-14T02:08:57;12.39;87.95
66343;DHT22;53144;51.524;5.080;2023-05-14T02:11:23;12.42;87.87
66343;DHT22;53144;51.524;5.080;2023-05-14T02:13:48;12.32;87.92
66343;DHT22;53144;51.524;5.080;2023-05-14T02:16:13;12.35;88.76
66343;DHT22;53144;51.524;5.080;2023-05-14T02:18:39;12.33;88.12
66343;DHT22;53144;51.524;5.080;2023-05-14T02:21:04;12.35;88.10
66343;DHT22;53144;51.524;5.080;2023-05-14T02:23:29;12.29;87.88
66343;DHT22;53144;51.524;5.080;2023-05-14T02:25:55;12.32;88.31
66343;DHT22;53144;51.524;5.080;2023-05-14T02:28:20;12.26;88.74
66343;DHT22;53144;51.524;5.080;2023-05-14T02:30:45;12.17;88.69
66343;DHT22;53144;51.524;5.080;2023-05-14T02:33:11;12.18;88.85
66343;DHT22;53144;51.524;5.080;2023-05-14T02:35:36;12.11;89.21
66343;DHT22;53144;51.524;5.080;2023-05-14T02:38:01;12.04;89.52
66343;DHT22;53144;51.524;5.080;2023-05-14T02:40:27;12.11;89.21
66343;DHT22;53144;51.524;5.080;2023-05-14T02:42:52;12.11;89.29
66343;DHT22;53144;51.524;5.080;2023-05-14T02:45:17;12.14;88.91
66343;DHT22;53144;51.524;5.080;2023-05-14T02:47:43;12.15;88.83
66343;DHT22;53144;51.524;5.080;2023-05-14T02:50:08;12.12;89.14
66343;DHT22;53144;51.524;5.080;2023-05-14T02:52:35;12.15;89.10
66343;DHT22;53144;51.524;5.080;2023-05-14T02:55:00;12.12;89.05
66343;DHT22;53144;51.524;5.080;2023-05-14T02:57:26;12.18;88.74
66343;DHT22;53144;51.524;5.080;2023-05-14T02:59:51;12.18;88.67
66343;DHT22;53144;51.524;5.080;2023-05-14T03:02:16;12.22;88.92
66343;DHT22;53144;51.524;5.080;2023-05-14T03:04:42;12.15;89.00
66343;DHT22;53144;51.524;5.080;2023-05-14T03:07:07;12.12;89.07
66343;DHT22;53144;51.524;5.080;2023-05-14T03:09:32;12.06;89.03
66343;DHT22;53144;51.524;5.080;2023-05-14T03:11:59;12.05;89.49
66343;DHT22;53144;51.524;5.080;2023-05-14T03:14:24;11.99;89.71
66343;DHT22;53144;51.524;5.080;2023-05-14T03:16:49;11.94;90.05
66343;DHT22;53144;51.524;5.080;2023-05-14T03:19:15;11.90;90.18
66343;DHT22;53144;51.524;5.080;2023-05-14T03:21:40;11.80;90.38
66343;DHT22;53144;51.524;5.080;2023-05-14T03:24:05;11.81;90.76
66343;DHT22;53144;51.524;5.080;2023-05-14T03:26:31;11.78;90.69
66343;DHT22;53144;51.524;5.080;2023-05-14T03:28:56;11.77;90.68
66343;DHT22;53144;51.524;5.080;2023-05-14T03:31:21;11.77;90.26
66343;DHT22;53144;51.524;5.080;2023-05-14T03:33:47;11.69;90.94
66343;DHT22;53144;51.524;5.080;2023-05-14T03:36:12;11.67;90.67
66343;DHT22;53144;51.524;5.080;2023-05-14T03:38:37;11.69;90.82
66343;DHT22;53144;51.524;5.080;2023-05-14T03:41:03;11.60;91.21
66343;DHT22;53144;51.524;5.080;2023-05-14T03:43:28;11.60;91.00
66343;DHT22;53144;51.524;5.080;2023-05-14T03:45:53;11.62;90.85
66343;DHT22;53144;51.524;5.080;2023-05-14T03:48:19;11.59;91.18
66343;DHT22;53144;51.524;5.080;2023-05-14T03:50:44;11.52;91.15
66343;DHT22;53144;51.524;5.080;2023-05-14T03:53:10;11.59;90.87
66343;DHT22;53144;51.524;5.080;2023-05-14T03:55:35;11.54;90.74
66343;DHT22;53144;51.524;5.080;2023-05-14T03:58:01;11.49;91.13
66343;DHT22;53144;51.524;5.080;2023-05-14T04:00:27;11.39;91.61
66343;DHT22;53144;51.524;5.080;2023-05-14T04:02:53;11.46;91.49
66343;DHT22;53144;51.524;5.080;2023-05-14T04:05:18;11.40;91.38
66343;DHT22;53144;51.524;5.080;2023-05-14T04:07:44;11.40;91.33
66343;DHT22;53144;51.524;5.080;2023-05-14T04:10:12;11.42;91.43
66343;DHT22;53144;51.524;5.080;2023-05-14T04:12:37;11.42;91.17
66343;DHT22;53144;51.524;5.080;2023-05-14T04:15:03;11.36;91.48
66343;DHT22;53144;51.524;5.080;2023-05-14T04:17:28;11.43;91.25
66343;DHT22;53144;51.524;5.080;2023-05-14T04:19:54;11.44;91.19
66343;DHT22;53144;51.524;5.080;2023-05-14T04:22:19;11.39;91.73
66343;DHT22;53144;51.524;5.080;2023-05-14T04:24:44;11.42;91.12
66343;DHT22;53144;51.524;5.080;2023-05-14T04:27:10;11.39;91.30
66343;DHT22;53144;51.524;5.080;2023-05-14T04:29:35;11.36;91.46
66343;DHT22;53144;51.524;5.080;2023-05-14T04:32:00;11.37;91.07
66343;DHT22;53144;51.524;5.080;2023-05-14T04:34:25;11.44;91.04
66343;DHT22;53144;51.524;5.080;2023-05-14T04:36:51;11.46;90.89
66343;DHT22;53144;51.524;5.080;2023-05-14T04:39:16;11.50;91.02
66343;DHT22;53144;51.524;5.080;2023-05-14T04:41:43;11.50;90.90
66343;DHT22;53144;51.524;5.080;2023-05-14T04:44:08;11.57;90.91
66343;DHT22;53144;51.524;5.080;2023-05-14T04:46:33;11.60;90.67
66343;DHT22;53144;51.524;5.080;2023-05-14T04:48:59;11.59;90.98
66343;DHT22;53144;51.524;5.080;2023-05-14T04:51:24;11.57;91.25
66343;DHT22;53144;51.524;5.080;2023-05-14T04:53:50;11.67;90.84
66343;DHT22;53144;51.524;5.080;2023-05-14T04:56:16;11.71;90.66
66343;DHT22;53144;51.524;5.080;2023-05-14T04:58:41;11.67;90.29
66343;DHT22;53144;51.524;5.080;2023-05-14T05:01:06;11.74;90.38
66343;DHT22;53144;51.524;5.080;2023-05-14T05:03:31;11.80;90.47
66343;DHT22;53144;51.524;5.080;2023-05-14T05:05:57;11.73;90.53
66343;DHT22;53144;51.524;5.080;2023-05-14T05:08:22;11.80;90.46
66343;DHT22;53144;51.524;5.080;2023-05-14T05:10:47;11.90;90.51
66343;DHT22;53144;51.524;5.080;2023-05-14T05:13:13;11.85;90.26
66343;DHT22;53144;51.524;5.080;2023-05-14T05:15:39;11.85;90.57
66343;DHT22;53144;51.524;5.080;2023-05-14T05:18:04;11.90;90.32
66343;DHT22;53144;51.524;5.080;2023-05-14T05:20:30;11.97;90.46
66343;DHT22;53144;51.524;5.080;2023-05-14T05:22:56;11.99;90.38
66343;DHT22;53144;51.524;5.080;2023-05-14T05:25:21;12.10;90.37
66343;DHT22;53144;51.524;5.080;2023-05-14T05:27:47;12.10;90.25
66343;DHT22;53144;51.524;5.080;2023-05-14T05:30:12;12.18;90.32
66343;DHT22;53144;51.524;5.080;2023-05-14T05:32:37;12.24;90.04
66343;DHT22;53144;51.524;5.080;2023-05-14T05:35:03;12.28;89.94
66343;DHT22;53144;51.524;5.080;2023-05-14T05:37:29;12.31;89.51
66343;DHT22;53144;51.524;5.080;2023-05-14T05:39:54;12.43;89.55
66343;DHT22;53144;51.524;5.080;2023-05-14T05:42:20;12.48;89.56
66343;DHT22;53144;51.524;5.080;2023-05-14T05:44:46;12.45;89.28
66343;DHT22;53144;51.524;5.080;2023-05-14T05:47:11;12.38;89.48
66343;DHT22;53144;51.524;5.080;2023-05-14T05:49:37;12.50;89.73
66343;DHT22;53144;51.524;5.080;2023-05-14T05:52:02;12.62;89.09
66343;DHT22;53144;51.524;5.080;2023-05-14T05:54:29;12.64;88.54
66343;DHT22;53144;51.524;5.080;2023-05-14T05:56:56;12.70;88.10
66343;DHT22;53144;51.524;5.080;2023-05-14T05:59:22;12.63;88.27
66343;DHT22;53144;51.524;5.080;2023-05-14T06:01:47;12.72;88.67
66343;DHT22;53144;51.524;5.080;2023-05-14T06:04:12;12.84;88.14
66343;DHT22;53144;51.524;5.080;2023-05-14T06:06:38;12.89;87.79
66343;DHT22;53144;51.524;5.080;2023-05-14T06:09:03;12.91;88.22
66343;DHT22;53144;51.524;5.080;2023-05-14T06:11:28;12.83;87.93
66343;DHT22;53144;51.524;5.080;2023-05-14T06:13:54;12.84;87.79
66343;DHT22;53144;51.524;5.080;2023-05-14T06:16:19;12.83;88.26
66343;DHT22;53144;51.524;5.080;2023-05-14T06:18:44;12.90;88.36
66343;DHT22;53144;51.524;5.080;2023-05-14T06:21:10;13.07;87.66
66343;DHT22;53144;51.524;5.080;2023-05-14T06:23:35;13.21;87.85
66343;DHT22;53144;51.524;5.080;2023-05-14T06:26:01;13.22;86.68
66343;DHT22;53144;51.524;5.080;2023-05-14T06:28:26;13.40;86.68
66343;DHT22;53144;51.524;5.080;2023-05-14T06:30:51;13.52;85.97
66343;DHT22;53144;51.524;5.080;2023-05-14T06:33:20;13.61;85.46
66343;DHT22;53144;51.524;5.080;2023-05-14T06:35:53;13.63;84.80
66343;DHT22;53144;51.524;5.080;2023-05-14T06:38:18;13.86;84.68
66343;DHT22;53144;51.524;5.080;2023-05-14T06:40:44;13.98;83.94
66343;DHT22;53144;51.524;5.080;2023-05-14T06:43:09;14.03;83.58
66343;DHT22;53144;51.524;5.080;2023-05-14T06:45:35;14.03;83.16
66343;DHT22;53144;51.524;5.080;2023-05-14T06:48:00;14.12;84.52
66343;DHT22;53144;51.524;5.080;2023-05-14T06:50:25;14.08;83.83
66343;DHT22;53144;51.524;5.080;2023-05-14T06:52:51;13.92;83.48
66343;DHT22;53144;51.524;5.080;2023-05-14T06:55:16;13.95;83.98
66343;DHT22;53144;51.524;5.080;2023-05-14T06:57:42;14.06;84.17
66343;DHT22;53144;51.524;5.080;2023-05-14T07:00:08;14.16;83.41
66343;DHT22;53144;51.524;5.080;2023-05-14T07:02:33;14.38;83.25
66343;DHT22;53144;51.524;5.080;2023-05-14T07:04:59;14.24;82.71
66343;DHT22;53144;51.524;5.080;2023-05-14T07:07:24;14.27;83.48
66343;DHT22;53144;51.524;5.080;2023-05-14T07:09:49;14.29;83.55
66343;DHT22;53144;51.524;5.080;2023-05-14T07:12:15;14.31;83.42
66343;DHT22;53144;51.524;5.080;2023-05-14T07:14:40;14.37;83.33
66343;DHT22;53144;51.524;5.080;2023-05-14T07:17:06;14.40;83.42
66343;DHT22;53144;51.524;5.080;2023-05-14T07:19:31;14.31;82.97
66343;DHT22;53144;51.524;5.080;2023-05-14T07:21:56;14.57;82.90
66343;DHT22;53144;51.524;5.080;2023-05-14T07:24:22;14.63;82.99
66343;DHT22;53144;51.524;5.080;2023-05-14T07:26:48;14.47;82.73
66343;DHT22;53144;51.524;5.080;2023-05-14T07:29:13;14.89;81.89
66343;DHT22;53144;51.524;5.080;2023-05-14T07:31:39;15.06;82.08
66343;DHT22;53144;51.524;5.080;2023-05-14T07:34:04;15.09;80.32
66343;DHT22;53144;51.524;5.080;2023-05-14T07:36:30;15.15;80.26
66343;DHT22;53144;51.524;5.080;2023-05-14T07:38:56;15.37;81.12
66343;DHT22;53144;51.524;5.080;2023-05-14T07:41:21;15.33;80.71
66343;DHT22;53144;51.524;5.080;2023-05-14T07:43:47;15.51;81.02
66343;DHT22;53144;51.524;5.080;2023-05-14T07:46:13;14.98;80.82
66343;DHT22;53144;51.524;5.080;2023-05-14T07:48:38;15.10;81.74
66343;DHT22;53144;51.524;5.080;2023-05-14T07:51:03;15.12;81.98
66343;DHT22;53144;51.524;5.080;2023-05-14T07:53:29;15.25;82.07
66343;DHT22;53144;51.524;5.080;2023-05-14T07:55:54;15.37;82.14
66343;DHT22;53144;51.524;5.080;2023-05-14T07:58:20;15.54;81.12
66343;DHT22;53144;51.524;5.080;2023-05-14T08:00:45;15.81;80.74
66343;DHT22;53144;51.524;5.080;2023-05-14T08:03:11;15.87;80.88
66343;DHT22;53144;51.524;5.080;2023-05-14T08:05:36;15.81;79.32
66343;DHT22;53144;51.524;5.080;2023-05-14T08:08:01;16.04;80.22
66343;DHT22;53144;51.524;5.080;2023-05-14T08:10:27;16.09;78.00
66343;DHT22;53144;51.524;5.080;2023-05-14T08:12:52;16.28;78.24
66343;DHT22;53144;51.524;5.080;2023-05-14T08:15:18;16.21;77.23
66343;DHT22;53144;51.524;5.080;2023-05-14T08:17:43;15.84;78.61
66343;DHT22;53144;51.524;5.080;2023-05-14T08:20:09;15.53;78.78
66343;DHT22;53144;51.524;5.080;2023-05-14T08:22:36;15.58;78.99
66343;DHT22;53144;51.524;5.080;2023-05-14T08:25:04;15.60;79.45
66343;DHT22;53144;51.524;5.080;2023-05-14T08:27:31;15.43;79.56
66343;DHT22;53144;51.524;5.080;2023-05-14T08:29:56;15.42;79.67
66343;DHT22;53144;51.524;5.080;2023-05-14T08:32:21;15.46;80.13
66343;DHT22;53144;51.524;5.080;2023-05-14T08:34:47;15.68;79.78
66343;DHT22;53144;51.524;5.080;2023-05-14T08:37:12;15.61;80.45
66343;DHT22;53144;51.524;5.080;2023-05-14T08:39:37;15.83;80.79
66343;DHT22;53144;51.524;5.080;2023-05-14T08:42:05;15.85;80.84
66343;DHT22;53144;51.524;5.080;2023-05-14T08:44:38;15.91;80.69
66343;DHT22;53144;51.524;5.080;2023-05-14T08:47:04;16.36;80.48
66343;DHT22;53144;51.524;5.080;2023-05-14T08:49:41;16.42;80.54
66343;DHT22;53144;51.524;5.080;2023-05-14T08:52:10;16.25;80.17
66343;DHT22;53144;51.524;5.080;2023-05-14T08:54:36;16.21;80.25
66343;DHT22;53144;51.524;5.080;2023-05-14T08:57:02;16.19;81.26
66343;DHT22;53144;51.524;5.080;2023-05-14T08:59:28;16.26;81.95
66343;DHT22;53144;51.524;5.080;2023-05-14T09:01:55;16.05;81.94
66343;DHT22;53144;51.524;5.080;2023-05-14T09:04:23;16.52;81.77
66343;DHT22;53144;51.524;5.080;2023-05-14T09:06:50;16.24;81.65
66343;DHT22;53144;51.524;5.080;2023-05-14T09:09:16;16.36;81.73
66343;DHT22;53144;51.524;5.080;2023-05-14T09:11:44;16.46;80.21
66343;DHT22;53144;51.524;5.080;2023-05-14T09:14:10;16.21;81.57
66343;DHT22;53144;51.524;5.080;2023-05-14T09:16:36;16.19;80.83
66343;DHT22;53144;51.524;5.080;2023-05-14T09:19:03;16.43;81.01
66343;DHT22;53144;51.524;5.080;2023-05-14T09:21:29;16.70;79.96
66343;DHT22;53144;51.524;5.080;2023-05-14T09:23:56;16.88;79.37
66343;DHT22;53144;51.524;5.080;2023-05-14T09:26:26;16.93;78.95
66343;DHT22;53144;51.524;5.080;2023-05-14T09:28:56;16.88;78.85
66343;DHT22;53144;51.524;5.080;2023-05-14T09:31:22;17.10;80.59
66343;DHT22;53144;51.524;5.080;2023-05-14T09:33:51;17.21;78.46
66343;DHT22;53144;51.524;5.080;2023-05-14T09:36:17;17.45;77.21
66343;DHT22;53144;51.524;5.080;2023-05-14T09:38:43;17.44;77.54
66343;DHT22;53144;51.524;5.080;2023-05-14T09:41:09;17.61;77.90
66343;DHT22;53144;51.524;5.080;2023-05-14T09:43:41;17.56;77.57
66343;DHT22;53144;51.524;5.080;2023-05-14T09:46:09;17.87;76.75
66343;DHT22;53144;51.524;5.080;2023-05-14T09:48:35;17.86;76.38
66343;DHT22;53144;51.524;5.080;2023-05-14T09:51:00;17.61;76.05
66343;DHT22;53144;51.524;5.080;2023-05-14T09:53:25;17.69;77.81
66343;DHT22;53144;51.524;5.080;2023-05-14T09:55:51;17.72;75.44
66343;DHT22;53144;51.524;5.080;2023-05-14T09:58:16;18.11;76.45
66343;DHT22;53144;51.524;5.080;2023-05-14T10:00:44;18.55;76.39
66343;DHT22;53144;51.524;5.080;2023-05-14T10:03:12;18.20;75.91
66343;DHT22;53144;51.524;5.080;2023-05-14T10:05:40;17.96;74.94
66343;DHT22;53144;51.524;5.080;2023-05-14T10:08:13;18.52;73.78
66343;DHT22;53144;51.524;5.080;2023-05-14T10:10:41;18.96;72.67
66343;DHT22;53144;51.524;5.080;2023-05-14T10:13:12;18.78;72.13
66343;DHT22;53144;51.524;5.080;2023-05-14T10:15:42;18.51;73.35
66343;DHT22;53144;51.524;5.080;2023-05-14T10:18:12;18.68;72.78
66343;DHT22;53144;51.524;5.080;2023-05-14T10:20:40;19.54;70.63
66343;DHT22;53144;51.524;5.080;2023-05-14T10:23:06;19.88;71.09
66343;DHT22;53144;51.524;5.080;2023-05-14T10:25:34;20.33;68.56
66343;DHT22;53144;51.524;5.080;2023-05-14T10:28:01;20.47;66.58
66343;DHT22;53144;51.524;5.080;2023-05-14T10:30:26;20.33;68.59
66343;DHT22;53144;51.524;5.080;2023-05-14T10:33:12;21.17;68.07
66343;DHT22;53144;51.524;5.080;2023-05-14T10:36:05;21.10;67.08
66343;DHT22;53144;51.524;5.080;2023-05-14T10:38:35;20.80;66.46
66343;DHT22;53144;51.524;5.080;2023-05-14T10:41:03;20.90;65.37
66343;DHT22;53144;51.524;5.080;2023-05-14T10:43:29;21.56;63.39
66343;DHT22;53144;51.524;5.080;2023-05-14T10:45:56;21.27;64.60
66343;DHT22;53144;51.524;5.080;2023-05-14T10:48:23;21.59;64.14
66343;DHT22;53144;51.524;5.080;2023-05-14T10:50:52;21.04;63.64
66343;DHT22;53144;51.524;5.080;2023-05-14T10:53:18;20.76;65.74
66343;DHT22;53144;51.524;5.080;2023-05-14T10:55:44;22.50;64.06
66343;DHT22;53144;51.524;5.080;2023-05-14T10:58:10;22.39;62.54
66343;DHT22;53144;51.524;5.080;2023-05-14T11:00:36;21.35;64.34
66343;DHT22;53144;51.524;5.080;2023-05-14T11:03:04;21.30;65.68
66343;DHT22;53144;51.524;5.080;2023-05-14T11:05:30;22.51;63.87
66343;DHT22;53144;51.524;5.080;2023-05-14T11:07:57;22.98;61.11
66343;DHT22;53144;51.524;5.080;2023-05-14T11:10:23;23.98;56.77
66343;DHT22;53144;51.524;5.080;2023-05-14T11:12:55;21.76;62.86
66343;DHT22;53144;51.524;5.080;2023-05-14T11:15:24;22.65;61.88
66343;DHT22;53144;51.524;5.080;2023-05-14T11:17:51;23.63;59.13
66343;DHT22;53144;51.524;5.080;2023-05-14T11:20:17;22.76;60.09
66343;DHT22;53144;51.524;5.080;2023-05-14T11:22:44;23.05;60.78
66343;DHT22;53144;51.524;5.080;2023-05-14T11:25:10;23.93;58.37
66343;DHT22;53144;51.524;5.080;2023-05-14T11:27:39;23.27;58.21
66343;DHT22;53144;51.524;5.080;2023-05-14T11:30:12;24.80;55.24
66343;DHT22;53144;51.524;5.080;2023-05-14T11:32:38;24.96;53.92
66343;DHT22;53144;51.524;5.080;2023-05-14T11:35:04;23.43;55.90
66343;DHT22;53144;51.524;5.080;2023-05-14T11:37:30;23.54;57.31
66343;DHT22;53144;51.524;5.080;2023-05-14T11:39:59;23.37;55.87
66343;DHT22;53144;51.524;5.080;2023-05-14T11:42:25;22.69;56.73
66343;DHT22;53144;51.524;5.080;2023-05-14T11:44:51;23.40;56.34
66343;DHT22;53144;51.524;5.080;2023-05-14T11:47:19;23.26;55.73
66343;DHT22;53144;51.524;5.080;2023-05-14T11:49:45;24.32;55.35
66343;DHT22;53144;51.524;5.080;2023-05-14T11:52:12;23.79;56.28
66343;DHT22;53144;51.524;5.080;2023-05-14T11:54:39;24.90;52.14
66343;DHT22;53144;51.524;5.080;2023-05-14T11:57:09;25.75;53.16
66343;DHT22;53144;51.524;5.080;2023-05-14T11:59:34;25.38;53.43
66343;DHT22;53144;51.524;5.080;2023-05-14T12:02:01;24.97;54.87
66343;DHT22;53144;51.524;5.080;2023-05-14T12:04:27;25.82;51.73
66343;DHT22;53144;51.524;5.080;2023-05-14T12:06:53;24.45;55.56
66343;DHT22;53144;51.524;5.080;2023-05-14T12:09:20;24.75;51.14
66343;DHT22;53144;51.524;5.080;2023-05-14T12:11:46;23.58;53.52
66343;DHT22;53144;51.524;5.080;2023-05-14T12:14:19;23.85;54.02
66343;DHT22;53144;51.524;5.080;2023-05-14T12:16:46;24.26;51.25
66343;DHT22;53144;51.524;5.080;2023-05-14T12:19:16;25.10;51.39
66343;DHT22;53144;51.524;5.080;2023-05-14T12:21:43;24.62;54.71
66343;DHT22;53144;51.524;5.080;2023-05-14T12:24:14;23.95;55.96
66343;DHT22;53144;51.524;5.080;2023-05-14T12:26:43;24.38;56.25
66343;DHT22;53144;51.524;5.080;2023-05-14T12:29:11;24.11;53.76
66343;DHT22;53144;51.524;5.080;2023-05-14T12:31:44;24.69;54.57
66343;DHT22;53144;51.524;5.080;2023-05-14T12:34:10;23.42;54.67
66343;DHT22;53144;51.524;5.080;2023-05-14T12:36:35;23.57;52.81
66343;DHT22;53144;51.524;5.080;2023-05-14T12:39:01;24.36;53.79
66343;DHT22;53144;51.524;5.080;2023-05-14T12:41:29;24.07;55.63
66343;DHT22;53144;51.524;5.080;2023-05-14T12:43:55;23.71;52.86
66343;DHT22;53144;51.524;5.080;2023-05-14T12:46:20;24.16;51.87
66343;DHT22;53144;51.524;5.080;2023-05-14T12:48:45;24.24;50.63
66343;DHT22;53144;51.524;5.080;2023-05-14T12:51:11;23.15;50.86
66343;DHT22;53144;51.524;5.080;2023-05-14T12:53:36;22.94;52.51
66343;DHT22;53144;51.524;5.080;2023-05-14T12:56:02;23.03;53.72
66343;DHT22;53144;51.524;5.080;2023-05-14T12:58:28;23.19;54.96
66343;DHT22;53144;51.524;5.080;2023-05-14T13:00:53;22.54;54.60
66343;DHT22;53144;51.524;5.080;2023-05-14T13:03:18;23.05;53.65
66343;DHT22;53144;51.524;5.080;2023-05-14T13:05:44;23.70;51.68
66343;DHT22;53144;51.524;5.080;2023-05-14T13:08:09;23.97;52.98
66343;DHT22;53144;51.524;5.080;2023-05-14T13:10:35;23.73;50.16
66343;DHT22;53144;51.524;5.080;2023-05-14T13:13:00;23.37;52.51
66343;DHT22;53144;51.524;5.080;2023-05-14T13:15:28;23.81;52.52
66343;DHT22;53144;51.524;5.080;2023-05-14T13:17:55;23.75;50.84
66343;DHT22;53144;51.524;5.080;2023-05-14T13:20:21;23.22;51.00
66343;DHT22;53144;51.524;5.080;2023-05-14T13:22:47;23.23;51.70
66343;DHT22;53144;51.524;5.080;2023-05-14T13:25:13;22.72;50.35
66343;DHT22;53144;51.524;5.080;2023-05-14T13:27:38;22.71;53.39
66343;DHT22;53144;51.524;5.080;2023-05-14T13:30:04;22.76;51.91
66343;DHT22;53144;51.524;5.080;2023-05-14T13:32:29;22.58;51.80
66343;DHT22;53144;51.524;5.080;2023-05-14T13:34:54;22.11;51.31
66343;DHT22;53144;51.524;5.080;2023-05-14T13:37:20;22.76;53.12
66343;DHT22;53144;51.524;5.080;2023-05-14T13:39:45;22.71;52.41
66343;DHT22;53144;51.524;5.080;2023-05-14T13:42:11;23.64;52.85
66343;DHT22;53144;51.524;5.080;2023-05-14T13:44:36;22.69;49.52
66343;DHT22;53144;51.524;5.080;2023-05-14T13:47:01;22.92;50.47
66343;DHT22;53144;51.524;5.080;2023-05-14T13:49:28;23.24;51.15
66343;DHT22;53144;51.524;5.080;2023-05-14T13:51:54;22.84;53.52
66343;DHT22;53144;51.524;5.080;2023-05-14T13:54:19;22.48;53.30
66343;DHT22;53144;51.524;5.080;2023-05-14T13:56:44;22.25;53.51
66343;DHT22;53144;51.524;5.080;2023-05-14T13:59:10;22.50;52.26
66343;DHT22;53144;51.524;5.080;2023-05-14T14:01:35;22.72;52.55
66343;DHT22;53144;51.524;5.080;2023-05-14T14:04:01;22.60;52.46
66343;DHT22;53144;51.524;5.080;2023-05-14T14:06:29;22.21;51.51
66343;DHT22;53144;51.524;5.080;2023-05-14T14:08:54;22.33;52.94
66343;DHT22;53144;51.524;5.080;2023-05-14T14:11:20;22.40;54.81
66343;DHT22;53144;51.524;5.080;2023-05-14T14:13:46;22.23;57.38
66343;DHT22;53144;51.524;5.080;2023-05-14T14:16:11;21.88;53.40
66343;DHT22;53144;51.524;5.080;2023-05-14T14:18:37;21.92;56.10
66343;DHT22;53144;51.524;5.080;2023-05-14T14:21:03;21.67;53.92
66343;DHT22;53144;51.524;5.080;2023-05-14T14:23:29;21.55;54.74
66343;DHT22;53144;51.524;5.080;2023-05-14T14:25:54;21.78;54.86
66343;DHT22;53144;51.524;5.080;2023-05-14T14:28:19;21.73;55.36
66343;DHT22;53144;51.524;5.080;2023-05-14T14:30:45;22.03;53.53
66343;DHT22;53144;51.524;5.080;2023-05-14T14:33:10;22.03;51.97
66343;DHT22;53144;51.524;5.080;2023-05-14T14:35:35;22.16;51.12
66343;DHT22;53144;51.524;5.080;2023-05-14T14:38:01;21.85;50.60
66343;DHT22;53144;51.524;5.080;2023-05-14T14:40:27;21.89;49.13
66343;DHT22;53144;51.524;5.080;2023-05-14T14:42:52;21.34;51.37
66343;DHT22;53144;51.524;5.080;2023-05-14T14:45:17;21.58;52.50
66343;DHT22;53144;51.524;5.080;2023-05-14T14:47:44;21.96;52.92
66343;DHT22;53144;51.524;5.080;2023-05-14T14:50:13;21.41;51.96
66343;DHT22;53144;51.524;5.080;2023-05-14T14:52:40;21.76;53.25
66343;DHT22;53144;51.524;5.080;2023-05-14T14:55:08;21.83;52.42
66343;DHT22;53144;51.524;5.080;2023-05-14T14:57:33;21.73;52.01
66343;DHT22;53144;51.524;5.080;2023-05-14T14:59:59;21.94;52.81
66343;DHT22;53144;51.524;5.080;2023-05-14T15:02:24;21.93;52.76
66343;DHT22;53144;51.524;5.080;2023-05-14T15:04:50;21.76;54.52
66343;DHT22;53144;51.524;5.080;2023-05-14T15:07:15;22.02;54.85
66343;DHT22;53144;51.524;5.080;2023-05-14T15:09:42;22.20;52.52
66343;DHT22;53144;51.524;5.080;2023-05-14T15:12:08;21.88;52.80
66343;DHT22;53144;51.524;5.080;2023-05-14T15:14:35;21.79;53.73
66343;DHT22;53144;51.524;5.080;2023-05-14T15:17:00;21.76;53.60
66343;DHT22;53144;51.524;5.080;2023-05-14T15:19:25;21.94;54.55
66343;DHT22;53144;51.524;5.080;2023-05-14T15:21:51;22.10;55.02
66343;DHT22;53144;51.524;5.080;2023-05-14T15:24:17;22.17;55.25
66343;DHT22;53144;51.524;5.080;2023-05-14T15:26:42;21.83;56.65